< < Back
Terminal Aerodrome Forecast


Current Version              Previous Versions:   1  2  3  4  5  6  7  8  9  

Terminal Aerodrome Forecast

683
FTUS42 KJAX 281720
TAFSSI
TAF
KSSI 281720Z 2818/2918 26008KT P6SM SCT030 SCT250
     FM281900 16009KT P6SM SCT050 SCT250
     FM290100 20009KT P6SM FEW050 SCT250=

Latest METAR

007
SAUS70 KWBC 291400 RRB
MTRSSI
METAR KSSI 291353Z AUTO 32007KT 10SM CLR 31/23 A3003 RMK AO2 SLP171
T03110228


USA.gov is the U.S. government's official web portal to all federal, state and local government web resources and services.